Time;durP1;ratioP1;P1;durP2;ratioP2;P2;SDS_P1;SDS_P2;PMS_P1;PMS_P2;Temp;Humidity;BMP_temperature;BMP_pressure;BME280_temperature;BME280_humidity;BME280_pressure;Samples;Min_cycle;Max_cycle;Signal;HPM_P1;HPM_P2
2022/11/10 00:01:33;;;;;;;5.87;3.37;;;10.90;99.90;;;;;;5074576;28;20596;-76
2022/11/10 00:04:23;;;;;;;8.77;3.60;;;10.90;99.90;;;;;;5070052;28;20234;-76
2022/11/10 00:07:08;;;;;;;7.10;3.50;;;10.90;99.90;;;;;;5079195;28;20232;-76
2022/11/10 00:09:53;;;;;;;10.23;4.00;;;10.90;99.90;;;;;;5089892;28;20229;-77
2022/11/10 00:12:39;;;;;;;9.17;3.80;;;10.90;99.90;;;;;;5075660;28;20218;-76
2022/11/10 00:18:27;;;;;;;7.77;3.60;;;10.80;99.90;;;;;;5078148;28;20257;-77
2022/11/10 00:21:16;;;;;;;9.33;4.93;;;10.80;99.90;;;;;;5081742;28;20274;-77
2022/11/10 00:24:02;;;;;;;7.47;4.17;;;10.80;99.90;;;;;;5081560;28;20478;-77
2022/11/10 00:26:48;;;;;;;9.93;4.87;;;10.70;99.90;;;;;;5068029;28;20225;-76
2022/11/10 00:29:33;;;;;;;7.60;4.20;;;10.80;99.90;;;;;;5071561;28;20756;-76
2022/11/10 00:32:18;;;;;;;12.07;4.87;;;10.80;99.90;;;;;;5089212;28;20832;-76
2022/11/10 00:35:04;;;;;;;9.57;5.37;;;10.70;99.90;;;;;;5078489;28;20226;-76
2022/11/10 00:37:51;;;;;;;11.47;4.80;;;10.70;99.90;;;;;;5084303;28;20341;-76
2022/11/10 00:40:36;;;;;;;10.87;5.27;;;10.70;99.90;;;;;;5073407;28;20234;-76
2022/11/10 00:43:23;;;;;;;9.23;4.40;;;10.70;99.90;;;;;;5075206;28;20218;-76
2022/11/10 00:46:08;;;;;;;11.53;5.07;;;10.60;99.90;;;;;;5081383;28;20282;-76
2022/11/10 00:48:53;;;;;;;11.47;4.60;;;10.60;99.90;;;;;;5075360;28;20746;-76
2022/11/10 00:51:39;;;;;;;9.53;4.57;;;10.60;99.90;;;;;;5075660;28;20291;-76
2022/11/10 00:54:26;;;;;;;12.17;4.93;;;10.60;99.90;;;;;;5072964;28;20297;-76
2022/11/10 00:57:11;;;;;;;10.37;4.50;;;10.50;99.90;;;;;;5070979;28;20377;-76
2022/11/10 00:59:57;;;;;;;15.00;4.83;;;10.50;99.90;;;;;;5072961;28;20224;-76
2022/11/10 01:02:48;;;;;;;9.33;4.40;;;10.40;99.90;;;;;;5082088;28;20245;-76
2022/11/10 01:05:36;;;;;;;10.50;4.90;;;10.40;99.90;;;;;;5061542;28;20233;-76
2022/11/10 01:08:21;;;;;;;7.73;4.40;;;10.40;99.90;;;;;;5075372;28;20250;-76
2022/11/10 01:11:10;;;;;;;12.63;4.23;;;10.30;99.90;;;;;;5078371;28;20249;-76
2022/11/10 01:13:56;;;;;;;12.20;4.77;;;10.30;99.90;;;;;;5084788;28;20230;-77
2022/11/10 01:16:41;;;;;;;10.20;4.33;;;10.30;99.90;;;;;;5068775;28;20616;-76
2022/11/10 01:19:26;;;;;;;11.07;4.33;;;10.30;99.90;;;;;;5066117;28;20652;-76
2022/11/10 01:22:12;;;;;;;7.30;5.20;;;10.30;99.90;;;;;;5078408;28;20229;-77
2022/11/10 01:24:57;;;;;;;9.63;4.40;;;10.20;99.90;;;;;;5081160;28;20754;-76
2022/11/10 01:27:44;;;;;;;11.60;4.53;;;10.20;99.90;;;;;;5082274;28;20774;-76
2022/11/10 01:30:29;;;;;;;11.53;5.13;;;10.20;99.90;;;;;;5081066;28;20973;-75
2022/11/10 01:33:16;;;;;;;6.83;4.00;;;10.10;99.90;;;;;;5083939;28;20237;-76
2022/11/10 01:36:03;;;;;;;9.07;4.43;;;10.10;99.90;;;;;;5078983;28;20252;-77
2022/11/10 01:38:49;;;;;;;8.10;4.53;;;10.00;99.90;;;;;;5078444;28;20291;-75
2022/11/10 01:41:34;;;;;;;6.93;4.20;;;9.90;99.90;;;;;;5076746;28;20254;-75
2022/11/10 01:44:23;;;;;;;7.30;4.23;;;9.90;99.90;;;;;;5079903;28;20221;-76
2022/11/10 01:47:09;;;;;;;9.37;4.13;;;9.80;99.90;;;;;;5084078;28;20229;-76
2022/11/10 01:49:54;;;;;;;8.70;4.07;;;9.80;99.90;;;;;;5075896;28;20713;-76
2022/11/10 01:52:41;;;;;;;8.80;4.27;;;9.70;99.90;;;;;;5080313;28;20583;-75
2022/11/10 01:55:28;;;;;;;10.20;4.00;;;9.60;99.90;;;;;;5077225;28;20228;-76
2022/11/10 01:58:17;;;;;;;8.40;4.07;;;9.60;99.90;;;;;;5078828;28;20231;-76
2022/11/10 02:01:04;;;;;;;9.20;3.73;;;9.60;99.90;;;;;;5082220;28;20229;-76
2022/11/10 02:03:51;;;;;;;11.20;3.90;;;9.50;99.90;;;;;;5075172;28;20223;-76
2022/11/10 02:06:41;;;;;;;9.87;3.67;;;9.40;99.90;;;;;;5061702;28;20834;-76
2022/11/10 02:09:26;;;;;;;8.63;4.03;;;9.40;99.90;;;;;;5073170;28;20940;-76
2022/11/10 02:12:12;;;;;;;8.60;4.00;;;9.30;99.90;;;;;;5080840;28;20225;-76
2022/11/10 02:15:00;;;;;;;11.03;4.57;;;9.30;99.90;;;;;;5079781;28;20361;-76
2022/11/10 02:17:48;;;;;;;14.40;4.63;;;9.20;99.90;;;;;;5076273;28;20226;-76
2022/11/10 02:20:34;;;;;;;10.40;4.10;;;9.20;99.90;;;;;;5082890;28;20229;-76
2022/11/10 02:23:50;;;;;;;9.00;4.50;;;9.20;99.90;;;;;;5076823;28;20745;-75
2022/11/10 02:26:37;;;;;;;10.50;4.07;;;9.10;99.90;;;;;;5081109;28;21049;-76
2022/11/10 02:29:23;;;;;;;7.07;3.90;;;9.10;99.90;;;;;;5083175;28;20229;-76
2022/11/10 02:32:08;;;;;;;9.00;4.10;;;9.10;99.90;;;;;;5077642;28;20889;-75
2022/11/10 02:34:54;;;;;;;9.10;4.30;;;9.10;99.90;;;;;;5070623;28;20238;-76
2022/11/10 02:37:39;;;;;;;10.77;4.13;;;9.00;99.90;;;;;;5066884;28;20343;-76
2022/11/10 02:40:26;;;;;;;7.90;4.13;;;9.00;99.90;;;;;;5082323;28;20294;-75
2022/11/10 02:43:14;;;;;;;10.90;4.00;;;9.00;99.90;;;;;;5072899;28;20603;-75
2022/11/10 02:45:59;;;;;;;9.80;4.07;;;8.90;99.90;;;;;;5074661;28;20693;-75
2022/11/10 02:48:45;;;;;;;9.90;4.63;;;9.00;99.90;;;;;;5074788;28;20799;-75
2022/11/10 02:51:31;;;;;;;9.60;4.70;;;8.90;99.90;;;;;;5080159;28;20227;-75
2022/11/10 02:54:16;;;;;;;12.93;5.30;;;8.90;99.90;;;;;;5079034;28;20740;-76
2022/11/10 02:57:03;;;;;;;12.53;5.27;;;8.80;99.90;;;;;;5069673;28;20742;-75
2022/11/10 02:59:49;;;;;;;7.87;4.30;;;8.80;99.90;;;;;;5086931;28;20265;-75
2022/11/10 03:02:34;;;;;;;12.60;5.23;;;8.80;99.90;;;;;;5072422;28;20303;-75
2022/11/10 03:05:19;;;;;;;11.63;5.30;;;8.70;99.90;;;;;;5073877;28;20229;-75
2022/11/10 03:08:05;;;;;;;10.73;5.60;;;8.70;99.90;;;;;;5080263;28;20230;-76
2022/11/10 03:10:53;;;;;;;12.80;5.43;;;8.70;99.90;;;;;;5085862;28;20223;-76
2022/11/10 03:13:40;;;;;;;11.30;5.03;;;8.70;99.90;;;;;;5075711;28;20229;-76
2022/11/10 03:16:25;;;;;;;12.07;6.20;;;8.60;99.90;;;;;;5076016;28;20241;-77
2022/11/10 03:19:10;;;;;;;9.97;5.83;;;8.60;99.90;;;;;;5076177;28;20222;-77
2022/11/10 03:21:56;;;;;;;12.97;5.90;;;8.60;99.90;;;;;;5078974;28;20223;-76
2022/11/10 03:24:41;;;;;;;13.40;6.63;;;8.60;99.90;;;;;;5072709;28;20238;-76
2022/11/10 03:27:26;;;;;;;12.63;7.20;;;8.50;99.90;;;;;;5073448;28;20247;-76
2022/11/10 03:30:16;;;;;;;9.87;6.50;;;8.50;99.90;;;;;;5074378;28;20604;-76
2022/11/10 03:33:01;;;;;;;11.87;6.90;;;8.50;99.90;;;;;;5072853;28;20356;-77
2022/11/10 03:35:47;;;;;;;13.90;7.87;;;8.50;99.90;;;;;;5075592;28;22029;-77
2022/11/10 03:38:32;;;;;;;10.90;7.20;;;8.50;99.90;;;;;;5074832;28;20914;-77
2022/11/10 03:41:17;;;;;;;15.37;8.03;;;8.40;99.90;;;;;;5075463;28;20230;-77
2022/11/10 03:44:03;;;;;;;16.07;7.47;;;8.40;99.90;;;;;;5078216;28;20232;-76
2022/11/10 03:46:49;;;;;;;13.17;7.87;;;8.40;99.90;;;;;;5076736;28;20277;-77
2022/11/10 03:49:34;;;;;;;17.00;8.23;;;8.40;99.90;;;;;;5080156;28;20232;-76
2022/11/10 03:52:20;;;;;;;16.50;8.57;;;8.30;99.90;;;;;;5072903;28;20284;-76
2022/11/10 03:55:06;;;;;;;14.10;8.03;;;8.30;99.90;;;;;;5073714;28;20717;-76
2022/11/10 03:57:51;;;;;;;13.07;8.33;;;8.30;99.90;;;;;;5075684;28;20225;-76
2022/11/10 04:00:37;;;;;;;13.43;7.93;;;8.30;99.90;;;;;;5069496;28;20283;-76
2022/11/10 04:03:24;;;;;;;13.77;7.50;;;8.30;99.90;;;;;;5069636;28;20303;-76
2022/11/10 04:09:15;;;;;;;14.00;8.00;;;8.30;99.90;;;;;;5077481;28;20228;-76
2022/11/10 04:18:23;;;;;;;15.87;9.60;;;8.30;99.90;;;;;;5078551;28;20285;-77
2022/11/10 04:21:11;;;;;;;15.17;9.73;;;8.30;99.90;;;;;;5075930;28;20231;-77
2022/11/10 04:23:56;;;;;;;21.83;9.77;;;8.40;99.90;;;;;;5081224;28;20357;-76
2022/11/10 04:26:42;;;;;;;17.00;10.40;;;8.40;99.90;;;;;;5077720;28;20257;-76
2022/11/10 04:29:27;;;;;;;17.60;11.07;;;8.40;99.90;;;;;;5081351;28;20228;-76
2022/11/10 04:32:13;;;;;;;16.97;11.20;;;8.50;99.90;;;;;;5074337;28;20229;-77
2022/11/10 04:34:58;;;;;;;15.03;10.37;;;8.50;99.90;;;;;;5074360;28;20619;-77
2022/11/10 04:37:46;;;;;;;19.97;11.27;;;8.60;99.90;;;;;;5075104;28;20233;-77
2022/11/10 04:40:31;;;;;;;16.20;11.27;;;8.60;99.90;;;;;;5076846;28;20694;-76
2022/11/10 04:43:16;;;;;;;18.93;11.50;;;8.60;99.90;;;;;;5077273;28;20241;-77
2022/11/10 04:46:03;;;;;;;20.80;12.27;;;8.70;99.90;;;;;;5075670;28;21642;-77
2022/11/10 04:48:48;;;;;;;23.23;12.80;;;8.70;99.90;;;;;;5078995;28;20232;-77
2022/11/10 04:51:35;;;;;;;21.53;13.80;;;8.80;99.90;;;;;;5074070;28;20712;-77
2022/11/10 04:54:22;;;;;;;19.73;13.10;;;8.80;99.90;;;;;;5078344;28;20355;-77
2022/11/10 04:57:07;;;;;;;21.40;13.60;;;8.80;99.90;;;;;;5073338;28;20224;-76
2022/11/10 04:59:53;;;;;;;26.00;14.93;;;8.80;99.90;;;;;;5074220;28;20323;-76
2022/11/10 05:02:38;;;;;;;24.77;14.77;;;8.80;99.90;;;;;;5066734;28;21006;-76
2022/11/10 05:05:24;;;;;;;22.63;15.63;;;8.80;99.90;;;;;;5073340;28;20309;-76
2022/11/10 05:08:09;;;;;;;25.83;16.27;;;8.90;99.90;;;;;;5080105;28;20220;-77
2022/11/10 05:10:59;;;;;;;23.00;15.13;;;8.90;99.90;;;;;;5074865;28;20829;-76
2022/11/10 05:13:45;;;;;;;23.40;15.97;;;8.90;99.90;;;;;;5077548;28;20367;-77
2022/11/10 05:16:30;;;;;;;27.03;16.90;;;9.00;99.90;;;;;;5077074;28;21078;-77
2022/11/10 05:19:15;;;;;;;21.27;15.40;;;9.10;99.90;;;;;;5080680;28;20232;-77
2022/11/10 05:22:01;;;;;;;21.97;15.83;;;9.10;99.90;;;;;;5074273;28;20243;-76
2022/11/10 05:24:46;;;;;;;19.70;14.50;;;9.10;99.90;;;;;;5078231;28;20312;-79
2022/11/10 05:27:33;;;;;;;25.10;15.10;;;9.10;99.90;;;;;;5073584;28;20241;-78
2022/11/10 05:30:18;;;;;;;25.00;14.77;;;9.10;99.90;;;;;;5074871;28;20240;-77
2022/11/10 05:33:04;;;;;;;33.87;15.07;;;9.10;99.90;;;;;;5072580;28;20221;-78
2022/11/10 05:35:50;;;;;;;20.00;15.13;;;9.10;99.90;;;;;;5071082;28;20248;-78
2022/11/10 05:38:35;;;;;;;25.90;14.30;;;9.10;99.90;;;;;;5075180;28;20229;-83
2022/11/10 05:41:21;;;;;;;19.07;13.73;;;9.10;99.90;;;;;;5075847;28;20704;-82
2022/11/10 05:44:08;;;;;;;22.43;13.60;;;9.10;99.90;;;;;;5078280;28;20231;-81
2022/11/10 05:46:53;;;;;;;19.77;13.20;;;9.10;99.90;;;;;;5075374;28;20242;-81
2022/11/10 05:49:39;;;;;;;22.33;13.20;;;9.10;99.90;;;;;;5079806;28;20354;-82
2022/11/10 05:52:24;;;;;;;20.97;13.40;;;9.00;99.90;;;;;;5072862;28;20241;-82
2022/11/10 05:55:10;;;;;;;20.60;13.10;;;9.00;99.90;;;;;;5076544;28;20233;-82
2022/11/10 05:57:57;;;;;;;19.97;12.53;;;9.00;99.90;;;;;;5072251;28;20310;-82
2022/11/10 06:00:44;;;;;;;19.13;13.13;;;9.00;99.90;;;;;;5077861;28;20307;-82
2022/11/10 06:03:29;;;;;;;22.23;13.20;;;9.00;99.90;;;;;;5076966;28;20278;-80
2022/11/10 06:06:14;;;;;;;21.77;12.50;;;8.90;99.90;;;;;;5074518;28;20233;-82
2022/11/10 06:08:59;;;;;;;22.67;12.83;;;8.90;99.90;;;;;;5075331;28;20717;-82
2022/11/10 06:11:45;;;;;;;20.97;12.67;;;8.90;99.90;;;;;;5077166;28;20237;-81
2022/11/10 06:14:30;;;;;;;21.33;13.60;;;8.90;99.90;;;;;;5072160;28;20929;-81
2022/11/10 06:17:17;;;;;;;20.83;12.07;;;8.90;99.90;;;;;;5076139;28;20256;-81
2022/11/10 06:20:03;;;;;;;21.33;13.33;;;8.80;99.90;;;;;;5078242;28;20266;-81
2022/11/10 06:22:59;;;;;;;20.37;12.10;;;8.80;99.90;;;;;;5075657;28;20282;-82
2022/11/10 06:25:45;;;;;;;18.53;11.77;;;8.80;99.90;;;;;;5076464;28;20287;-82
2022/11/10 06:28:30;;;;;;;24.13;12.60;;;8.80;99.90;;;;;;5073380;28;20232;-82
2022/11/10 06:31:16;;;;;;;22.10;11.67;;;8.80;99.90;;;;;;5076436;28;20862;-82
2022/11/10 06:34:02;;;;;;;19.73;11.33;;;8.80;99.90;;;;;;5076352;28;20241;-81
2022/11/10 06:36:48;;;;;;;19.93;12.03;;;8.80;99.90;;;;;;5076756;28;20252;-81
2022/11/10 06:39:33;;;;;;;16.73;11.40;;;8.80;99.90;;;;;;5078455;28;20756;-83
2022/11/10 06:42:18;;;;;;;19.03;11.80;;;8.70;99.90;;;;;;5072407;28;20224;-83
2022/11/10 06:45:06;;;;;;;22.27;11.60;;;8.70;99.90;;;;;;5075031;28;20333;-82
2022/11/10 06:47:59;;;;;;;14.03;9.77;;;8.70;99.90;;;;;;5078675;28;20303;-80
2022/11/10 06:50:46;;;;;;;20.47;11.37;;;8.70;99.90;;;;;;5081497;28;20419;-80
2022/11/10 06:53:33;;;;;;;15.80;10.63;;;8.70;99.90;;;;;;5080791;28;20251;-80
2022/11/10 06:56:19;;;;;;;18.70;10.47;;;8.70;99.90;;;;;;5081279;28;20248;-81
2022/11/10 06:59:07;;;;;;;19.73;10.53;;;8.80;99.90;;;;;;5077867;28;20228;-80
2022/11/10 07:01:53;;;;;;;19.50;9.53;;;8.80;99.90;;;;;;5076272;28;20221;-80
2022/11/10 07:04:38;;;;;;;21.10;9.10;;;8.80;99.90;;;;;;5077241;28;20227;-80
2022/11/10 07:07:25;;;;;;;16.40;9.87;;;8.90;99.90;;;;;;5081566;28;20244;-80
2022/11/10 07:10:10;;;;;;;22.80;9.67;;;8.90;99.90;;;;;;5082330;28;20230;-80
2022/11/10 07:12:59;;;;;;;16.40;9.33;;;8.90;99.90;;;;;;5082317;28;20286;-80
2022/11/10 07:15:45;;;;;;;16.03;8.97;;;8.90;99.90;;;;;;5078146;28;20283;-81
2022/11/10 07:18:30;;;;;;;18.57;9.07;;;8.90;99.90;;;;;;5086432;28;20322;-80
2022/11/10 07:21:15;;;;;;;21.83;9.23;;;8.90;99.90;;;;;;5082441;28;20244;-80
2022/11/10 07:24:02;;;;;;;16.20;9.00;;;8.80;99.90;;;;;;5080030;28;20229;-81
2022/11/10 07:26:47;;;;;;;17.40;9.20;;;8.80;99.90;;;;;;5080431;28;20225;-80
2022/11/10 07:29:33;;;;;;;19.07;9.10;;;8.80;99.90;;;;;;5076247;28;20229;-81
2022/11/10 07:32:18;;;;;;;14.93;9.20;;;8.80;99.90;;;;;;5073902;28;20268;-80
2022/11/10 07:35:03;;;;;;;17.77;9.73;;;8.80;99.90;;;;;;5080068;28;20224;-80
2022/11/10 07:37:48;;;;;;;16.37;9.50;;;8.80;99.90;;;;;;5080519;28;20226;-80
2022/11/10 07:40:38;;;;;;;18.40;10.13;;;8.80;99.90;;;;;;5073572;28;20327;-80
2022/11/10 07:43:24;;;;;;;18.57;10.60;;;8.80;99.90;;;;;;5077622;28;20348;-77
2022/11/10 07:46:10;;;;;;;19.20;11.23;;;8.80;99.90;;;;;;5082845;28;20890;-78
2022/11/10 07:48:55;;;;;;;18.27;11.53;;;8.80;99.90;;;;;;5081724;28;20245;-78
2022/11/10 07:51:42;;;;;;;21.03;12.30;;;8.90;99.90;;;;;;5078274;28;20226;-80
2022/11/10 07:54:28;;;;;;;21.13;10.60;;;9.00;99.90;;;;;;5085747;28;20279;-80
2022/11/10 07:57:14;;;;;;;20.27;11.83;;;9.10;99.90;;;;;;5085020;28;20233;-77
2022/11/10 07:59:59;;;;;;;17.47;11.37;;;9.20;99.90;;;;;;5077134;28;20277;-78
2022/11/10 08:02:45;;;;;;;20.77;10.80;;;9.20;99.90;;;;;;5075043;28;20315;-78
2022/11/10 08:05:31;;;;;;;20.30;12.10;;;9.30;99.90;;;;;;5073758;28;20261;-78
2022/11/10 08:08:16;;;;;;;21.37;12.20;;;9.40;99.90;;;;;;5080062;28;20775;-78
2022/11/10 08:11:02;;;;;;;20.03;12.03;;;9.40;99.90;;;;;;5079030;28;20222;-78
2022/11/10 08:13:49;;;;;;;22.70;12.47;;;9.50;99.90;;;;;;5075644;28;20256;-78
2022/11/10 08:16:34;;;;;;;21.43;12.30;;;9.60;99.90;;;;;;5077686;28;20275;-77
2022/11/10 08:19:19;;;;;;;25.97;12.00;;;9.60;99.90;;;;;;5079632;28;20240;-77
2022/11/10 08:22:04;;;;;;;24.63;12.17;;;9.60;99.90;;;;;;5074350;28;20819;-77
2022/11/10 08:24:50;;;;;;;24.87;11.63;;;9.70;99.90;;;;;;5069850;28;20601;-77
2022/11/10 08:27:35;;;;;;;19.33;11.23;;;9.70;99.90;;;;;;5078922;28;20234;-77
2022/11/10 08:30:22;;;;;;;17.27;11.30;;;9.80;99.90;;;;;;5080087;28;20229;-77
2022/11/10 08:33:09;;;;;;;21.77;12.30;;;9.80;99.90;;;;;;5078467;28;20231;-79
2022/11/10 08:35:54;;;;;;;19.90;11.60;;;9.90;99.90;;;;;;5075676;28;20321;-79
2022/11/10 08:38:40;;;;;;;24.33;11.43;;;10.00;99.90;;;;;;5081321;28;20236;-79
2022/11/10 08:41:25;;;;;;;20.73;11.37;;;10.00;99.90;;;;;;5075808;28;20230;-79
2022/11/10 08:44:12;;;;;;;21.50;11.50;;;10.00;99.90;;;;;;5084043;28;20352;-79
2022/11/10 08:46:58;;;;;;;20.97;10.80;;;10.10;99.90;;;;;;5067900;28;20230;-79
2022/11/10 08:49:46;;;;;;;27.57;12.93;;;10.10;99.90;;;;;;5083143;28;20226;-79
2022/11/10 08:52:33;;;;;;;22.60;11.47;;;10.10;99.90;;;;;;5078475;28;20230;-79
2022/11/10 08:55:19;;;;;;;24.97;12.27;;;10.20;99.90;;;;;;5081172;28;20283;-79
2022/11/10 08:58:05;;;;;;;20.70;12.10;;;10.20;99.90;;;;;;5079925;28;20268;-80
2022/11/10 09:00:51;;;;;;;22.33;13.07;;;10.30;99.90;;;;;;5084935;28;20283;-79
2022/11/10 09:03:38;;;;;;;21.70;12.57;;;10.30;99.90;;;;;;5077660;28;20281;-80
2022/11/10 09:06:23;;;;;;;19.83;11.77;;;10.40;99.90;;;;;;5077422;28;20481;-81
2022/11/10 09:09:09;;;;;;;23.00;13.07;;;10.40;99.90;;;;;;5072638;28;20237;-81
2022/11/10 09:11:55;;;;;;;24.07;12.23;;;10.50;99.90;;;;;;5078843;28;20331;-81
2022/11/10 09:14:40;;;;;;;20.97;12.30;;;10.50;99.90;;;;;;5084798;28;20314;-80
2022/11/10 09:17:25;;;;;;;22.70;12.70;;;10.50;99.90;;;;;;5074291;28;20595;-79
2022/11/10 09:20:12;;;;;;;24.53;13.57;;;10.60;99.90;;;;;;5079500;28;20272;-80
2022/11/10 09:23:04;;;;;;;22.57;13.00;;;10.60;99.90;;;;;;5081075;28;20221;-79
2022/11/10 09:25:52;;;;;;;26.03;13.13;;;10.60;99.90;;;;;;5084774;28;20295;-77
2022/11/10 09:28:37;;;;;;;26.87;13.33;;;10.70;99.90;;;;;;5076620;28;20337;-77
2022/11/10 09:31:23;;;;;;;25.00;12.40;;;10.70;99.90;;;;;;5074835;28;20250;-77
2022/11/10 09:34:09;;;;;;;19.57;12.43;;;10.80;99.90;;;;;;5077533;28;20802;-77
2022/11/10 09:36:56;;;;;;;22.40;12.63;;;10.80;99.90;;;;;;5068154;28;20227;-77
2022/11/10 09:39:41;;;;;;;24.30;11.83;;;10.90;99.90;;;;;;5075079;28;20227;-77
2022/11/10 09:42:32;;;;;;;23.93;11.70;;;10.90;99.90;;;;;;5080846;28;20294;-77
2022/11/10 09:45:23;;;;;;;19.50;11.57;;;11.00;99.90;;;;;;5077606;28;20291;-77
2022/11/10 09:48:19;;;;;;;18.33;10.83;;;11.10;99.90;;;;;;5074145;28;20225;-77
2022/11/10 09:51:08;;;;;;;21.77;11.13;;;11.20;99.90;;;;;;5063394;28;20393;-77
2022/11/10 09:53:58;;;;;;;18.60;11.33;;;11.20;99.90;;;;;;5076904;28;20233;-77
2022/11/10 09:56:44;;;;;;;19.97;10.80;;;11.30;99.90;;;;;;5075443;28;20230;-77
2022/11/10 09:59:31;;;;;;;25.33;10.83;;;11.30;99.90;;;;;;5075361;28;20245;-77
2022/11/10 10:02:29;;;;;;;20.37;10.37;;;11.40;99.90;;;;;;5072092;28;20903;-77
2022/11/10 10:05:46;;;;;;;21.10;10.90;;;11.50;99.90;;;;;;5070045;28;20231;-77
2022/11/10 10:08:44;;;;;;;17.77;9.13;;;11.50;99.90;;;;;;5069296;28;20280;-77
2022/11/10 10:11:47;;;;;;;18.60;10.07;;;11.70;99.90;;;;;;5072276;28;20320;-77
2022/11/10 10:14:47;;;;;;;18.60;10.40;;;11.70;99.90;;;;;;5072417;28;20938;-78
2022/11/10 10:17:41;;;;;;;18.60;9.53;;;11.70;99.90;;;;;;5076968;28;20235;-78
2022/11/10 10:20:32;;;;;;;19.40;9.83;;;11.70;99.90;;;;;;5076113;28;20862;-78
2022/11/10 10:23:24;;;;;;;14.17;9.17;;;11.70;99.90;;;;;;5078719;28;20901;-78
2022/11/10 10:26:13;;;;;;;18.03;9.57;;;11.70;99.90;;;;;;5077819;28;20317;-78
2022/11/10 10:29:07;;;;;;;15.03;9.27;;;11.70;99.90;;;;;;5079934;28;20264;-78
2022/11/10 10:31:53;;;;;;;17.97;9.50;;;11.70;99.90;;;;;;5080933;28;20284;-78
2022/11/10 10:34:40;;;;;;;18.90;9.57;;;11.80;99.90;;;;;;5083097;28;20225;-78
2022/11/10 10:37:32;;;;;;;18.20;8.83;;;11.70;99.90;;;;;;5069924;28;20600;-78
2022/11/10 10:40:20;;;;;;;17.33;8.97;;;11.70;99.90;;;;;;5081572;28;20228;-78
2022/11/10 10:43:05;;;;;;;17.50;8.80;;;11.70;99.90;;;;;;5078581;28;20278;-78
2022/11/10 10:46:06;;;;;;;20.90;8.70;;;11.80;99.90;;;;;;5075421;28;20246;-78
2022/11/10 10:49:08;;;;;;;19.37;8.63;;;11.70;99.90;;;;;;5078569;28;20709;-78
2022/11/10 10:52:03;;;;;;;18.20;9.33;;;11.80;99.90;;;;;;5075089;28;20229;-78
2022/11/10 10:54:59;;;;;;;18.20;8.57;;;11.80;99.90;;;;;;5079680;28;20219;-78
2022/11/10 10:57:51;;;;;;;16.87;8.23;;;11.90;99.90;;;;;;5075116;28;20313;-78
2022/11/10 11:00:43;;;;;;;14.90;7.90;;;12.00;99.90;;;;;;5078070;28;20227;-78
2022/11/10 11:03:39;;;;;;;18.43;8.30;;;12.10;99.90;;;;;;5077414;28;20222;-81
2022/11/10 11:06:26;;;;;;;20.27;8.10;;;12.20;99.90;;;;;;5075834;28;20279;-81
2022/11/10 11:09:18;;;;;;;16.77;7.97;;;12.30;99.90;;;;;;5079558;28;20299;-81
2022/11/10 11:12:06;;;;;;;16.90;7.70;;;12.30;99.90;;;;;;5077806;28;20237;-81
2022/11/10 11:14:52;;;;;;;16.30;8.17;;;12.30;99.90;;;;;;5079465;28;20256;-81
2022/11/10 11:17:38;;;;;;;15.97;7.53;;;12.30;99.90;;;;;;5073632;28;20223;-80
2022/11/10 11:20:35;;;;;;;20.97;7.40;;;12.30;99.90;;;;;;5069842;28;20304;-80
2022/11/10 11:23:43;;;;;;;23.27;7.33;;;12.30;99.90;;;;;;5078016;28;20679;-80
2022/11/10 11:26:36;;;;;;;16.80;6.77;;;12.40;99.90;;;;;;5072686;28;20232;-80
2022/11/10 11:29:43;;;;;;;18.70;8.00;;;12.40;99.90;;;;;;5080341;22;20456;-82
2022/11/10 11:32:56;;;;;;;16.00;7.40;;;12.50;99.90;;;;;;5033012;28;20817;-81
2022/11/10 11:35:48;;;;;;;14.80;6.83;;;12.50;99.90;;;;;;5041607;28;20237;-82
2022/11/10 11:38:47;;;;;;;17.77;7.03;;;12.60;99.90;;;;;;5066913;28;20271;-81
2022/11/10 11:41:38;;;;;;;17.50;6.80;;;12.60;99.90;;;;;;5080041;28;20826;-81
2022/11/10 11:44:44;;;;;;;16.17;6.40;;;12.70;99.90;;;;;;5078201;28;20236;-82
2022/11/10 11:47:40;;;;;;;14.33;6.77;;;12.70;99.90;;;;;;5079789;28;20270;-81
2022/11/10 11:50:29;;;;;;;20.60;7.03;;;12.70;99.90;;;;;;5075127;28;20615;-78
2022/11/10 11:53:32;;;;;;;19.70;7.20;;;12.70;99.90;;;;;;5077553;28;20250;-81
2022/11/10 11:56:23;;;;;;;17.47;6.40;;;12.80;99.90;;;;;;5083558;28;20336;-82
2022/11/10 11:59:28;;;;;;;20.17;6.83;;;12.80;99.90;;;;;;5084974;28;20231;-81
2022/11/10 12:02:38;;;;;;;19.93;6.87;;;12.90;99.90;;;;;;5084323;28;20347;-83
2022/11/10 12:05:35;;;;;;;14.87;6.33;;;12.90;99.90;;;;;;5081641;28;20234;-81
2022/11/10 12:08:33;;;;;;;14.90;6.37;;;13.00;99.90;;;;;;5080442;28;20253;-80
2022/11/10 12:11:27;;;;;;;16.00;5.70;;;13.00;99.90;;;;;;5085746;28;20910;-82
2022/11/10 12:14:21;;;;;;;14.73;6.40;;;13.10;99.90;;;;;;5078733;28;20223;-81
2022/11/10 12:17:12;;;;;;;16.90;6.07;;;13.10;99.90;;;;;;5085560;28;20222;-81
2022/11/10 12:20:07;;;;;;;12.70;5.77;;;13.10;99.90;;;;;;5082140;28;20228;-80
2022/11/10 12:23:03;;;;;;;15.43;6.17;;;13.10;99.90;;;;;;5077691;28;20229;-83
2022/11/10 12:26:01;;;;;;;13.60;5.40;;;13.10;99.90;;;;;;5083974;28;20240;-81
2022/11/10 12:28:52;;;;;;;11.33;4.83;;;13.10;99.90;;;;;;5084282;28;21060;-80
2022/11/10 12:31:42;;;;;;;18.27;5.37;;;13.20;99.90;;;;;;5084172;28;20277;-82
2022/11/10 12:34:33;;;;;;;16.03;5.23;;;13.20;99.90;;;;;;5080171;28;20740;-81
2022/11/10 12:37:32;;;;;;;11.17;4.90;;;13.20;99.90;;;;;;5077616;28;21624;-81
2022/11/10 12:40:20;;;;;;;14.77;6.00;;;13.20;99.90;;;;;;5078567;28;20231;-81
2022/11/10 12:43:17;;;;;;;13.70;5.17;;;13.20;99.90;;;;;;5084126;28;21003;-81
2022/11/10 12:46:05;;;;;;;14.70;5.23;;;13.20;99.90;;;;;;5079136;28;20248;-81
2022/11/10 12:49:00;;;;;;;13.70;4.87;;;13.30;99.90;;;;;;5064659;28;20229;-81
2022/11/10 12:51:53;;;;;;;15.50;5.10;;;13.30;99.90;;;;;;5057684;28;20257;-81
2022/11/10 12:54:40;;;;;;;9.87;5.07;;;13.30;99.90;;;;;;5061099;28;20222;-82
2022/11/10 12:57:28;;;;;;;14.20;5.47;;;13.30;99.90;;;;;;5083135;28;20301;-82
2022/11/10 13:00:26;;;;;;;12.70;4.67;;;13.30;99.90;;;;;;5077341;28;20819;-81
2022/11/10 13:03:24;;;;;;;10.97;4.63;;;13.20;99.90;;;;;;5074975;28;20891;-81
2022/11/10 13:06:24;;;;;;;13.60;4.77;;;13.20;99.90;;;;;;5081910;28;20253;-81
2022/11/10 13:09:22;;;;;;;11.70;4.37;;;13.10;99.90;;;;;;5079815;28;20875;-81
2022/11/10 13:12:22;;;;;;;11.43;4.20;;;13.10;99.90;;;;;;5077766;28;20363;-82
2022/11/10 13:18:57;;;;;;;14.27;4.43;;;13.10;99.90;;;;;;5105648;27;20736;-80
2022/11/10 13:22:27;;;;;;;14.50;4.23;;;13.10;99.90;;;;;;5099487;27;20236;-79
2022/11/10 13:25:42;;;;;;;11.80;4.40;;;13.00;99.90;;;;;;5086009;28;20303;-80
2022/11/10 13:28:59;;;;;;;9.97;3.80;;;13.00;99.90;;;;;;5093168;27;20226;-81
2022/11/10 13:31:54;;;;;;;11.47;4.47;;;13.00;99.90;;;;;;5100746;27;20224;-80
2022/11/10 13:34:40;;;;;;;9.27;4.03;;;12.90;99.90;;;;;;5098411;28;20229;-80
2022/11/10 13:37:49;;;;;;;16.17;4.80;;;12.90;99.90;;;;;;5101438;27;20753;-80
2022/11/10 13:40:39;;;;;;;12.50;4.07;;;12.90;99.90;;;;;;5081195;27;20229;-80
2022/11/10 13:43:26;;;;;;;10.10;3.77;;;12.90;99.90;;;;;;5074329;27;20269;-81
2022/11/10 13:46:12;;;;;;;11.80;4.13;;;12.90;99.90;;;;;;5070646;28;20286;-80
2022/11/10 13:49:23;;;;;;;9.30;4.13;;;12.80;99.90;;;;;;5073653;28;20231;-81
2022/11/10 13:52:14;;;;;;;11.40;4.13;;;12.80;99.90;;;;;;5070120;28;20363;-80
2022/11/10 13:55:23;;;;;;;9.20;3.73;;;12.80;99.90;;;;;;5074168;28;20354;-80
2022/11/10 13:58:12;;;;;;;12.17;3.90;;;12.90;99.90;;;;;;5076704;28;20229;-80
2022/11/10 14:01:27;;;;;;;13.23;4.17;;;12.90;99.90;;;;;;5067033;28;20307;-80
2022/11/10 14:04:40;;;;;;;14.70;4.10;;;12.80;99.90;;;;;;5098160;27;20274;-80
2022/11/10 14:07:28;;;;;;;12.57;4.43;;;12.80;99.90;;;;;;5094043;27;20883;-80
2022/11/10 14:10:19;;;;;;;11.30;3.73;;;12.80;99.90;;;;;;5087456;28;20248;-79
2022/11/10 14:13:11;;;;;;;11.57;4.03;;;12.80;99.90;;;;;;5081855;27;20735;-79
2022/11/10 14:15:57;;;;;;;16.13;4.60;;;12.80;99.90;;;;;;5103162;28;20298;-80
2022/11/10 14:18:49;;;;;;;10.23;4.00;;;12.80;99.90;;;;;;5092457;28;20234;-80
2022/11/10 14:21:43;;;;;;;8.97;3.50;;;12.80;99.90;;;;;;5095059;27;20228;-80
2022/11/10 14:24:34;;;;;;;14.40;3.90;;;12.80;99.90;;;;;;5085678;27;20228;-81
2022/11/10 14:27:25;;;;;;;12.93;3.57;;;12.80;99.90;;;;;;5073076;28;20356;-79
2022/11/10 14:30:23;;;;;;;11.40;3.83;;;12.80;99.90;;;;;;5061692;28;20751;-81
2022/11/10 14:33:11;;;;;;;11.57;3.50;;;12.80;99.90;;;;;;5056636;28;20724;-80
2022/11/10 14:35:58;;;;;;;11.27;3.57;;;12.80;99.90;;;;;;5059728;28;20345;-80
2022/11/10 14:38:45;;;;;;;12.47;4.07;;;12.80;99.90;;;;;;5062986;28;20332;-80
2022/11/10 14:41:30;;;;;;;11.90;4.07;;;12.90;99.90;;;;;;5062404;28;20233;-80
2022/11/10 14:44:23;;;;;;;15.63;3.60;;;12.90;99.90;;;;;;5057131;28;20639;-80
2022/11/10 14:47:22;;;;;;;12.87;4.20;;;12.90;99.90;;;;;;5081697;28;20228;-81
2022/11/10 14:50:17;;;;;;;9.77;3.73;;;12.90;99.90;;;;;;5073127;28;20307;-80